Time;durP1;ratioP1;P1;durP2;ratioP2;P2;SDS_P1;SDS_P2;PMS_P1;PMS_P2;Temp;Humidity;BMP_temperature;BMP_pressure;BME280_temperature;BME280_humidity;BME280_pressure;Samples;Min_cycle;Max_cycle;Signal;HPM_P1;HPM_P2
2022/09/29 00:01:49;;;;;;;;;2.25;2.25;;;;;14.92;60.92;99652.25;5025094;28;46098;-64
2022/09/29 00:04:14;;;;;;;;;1.75;1.00;;;;;14.93;60.92;99656.66;5022558;28;55115;-64
2022/09/29 00:06:40;;;;;;;;;2.00;2.00;;;;;14.85;61.13;99648.25;5036007;28;50593;-64
2022/09/29 00:09:05;;;;;;;;;1.00;1.00;;;;;14.85;61.19;99642.88;5024771;28;45526;-64
2022/09/29 00:11:31;;;;;;;;;1.75;1.75;;;;;14.89;61.36;99650.63;5025799;28;46910;-64
2022/09/29 00:13:56;;;;;;;;;2.00;2.00;;;;;14.91;61.40;99650.53;5032680;28;45472;-64
2022/09/29 00:16:21;;;;;;;;;3.00;2.00;;;;;14.86;61.25;99644.59;5019686;28;45342;-64
2022/09/29 00:18:47;;;;;;;;;2.25;2.00;;;;;14.84;61.21;99635.78;5028737;28;45700;-64
2022/09/29 00:21:18;;;;;;;;;2.25;2.00;;;;;14.89;61.06;99652.47;5031356;28;47135;-64
2022/09/29 00:23:43;;;;;;;;;1.75;1.75;;;;;14.86;61.54;99650.84;5028732;28;45264;-64
2022/09/29 00:26:10;;;;;;;;;3.25;2.25;;;;;14.89;61.27;99641.72;5016338;28;45742;-64
2022/09/29 00:28:38;;;;;;;;;1.00;1.00;;;;;14.88;61.29;99643.50;5026286;28;45765;-64
2022/09/29 00:31:06;;;;;;;;;4.25;2.50;;;;;14.83;61.24;99640.28;5024301;28;45638;-64
2022/09/29 00:33:34;;;;;;;;;1.00;1.00;;;;;14.87;61.59;99643.63;5027354;28;45377;-63
2022/09/29 00:36:09;;;;;;;;;2.75;2.00;;;;;14.87;61.43;99644.50;5017388;28;45313;-64
2022/09/29 00:38:35;;;;;;;;;3.00;3.00;;;;;14.87;61.70;99646.31;5017775;28;45323;-64
2022/09/29 00:41:01;;;;;;;;;1.00;1.00;;;;;14.86;61.71;99641.91;5017541;28;45575;-63
2022/09/29 00:43:45;;;;;;;;;2.50;2.00;;;;;14.85;61.54;99641.06;5018014;28;45428;-64
2022/09/29 00:46:13;;;;;;;;;1.00;1.00;;;;;14.78;61.45;99632.56;5043160;28;45344;-64
2022/09/29 00:48:40;;;;;;;;;3.50;3.50;;;;;14.77;61.55;99630.81;5022473;28;45407;-64
2022/09/29 00:51:06;;;;;;;;;2.00;2.00;;;;;14.72;61.59;99622.22;5029774;28;45552;-64
2022/09/29 00:53:32;;;;;;;;;2.00;2.00;;;;;14.76;61.49;99623.72;5021934;28;45437;-64
2022/09/29 00:56:06;;;;;;;;;2.00;2.00;;;;;14.79;61.55;99628.03;5027298;28;45467;-64
2022/09/29 00:58:55;;;;;;;;;3.00;2.00;;;;;14.61;61.67;99603.28;5020819;28;45331;-64
2022/09/29 01:01:27;;;;;;;;;2.25;2.25;;;;;14.74;61.55;99616.75;5029919;28;45666;-64
2022/09/29 01:03:59;;;;;;;;;2.75;1.50;;;;;14.74;61.44;99628.34;5026429;28;45619;-64
2022/09/29 01:06:34;;;;;;;;;2.00;2.00;;;;;14.73;61.54;99634.66;5039558;28;45528;-64
2022/09/29 01:09:03;;;;;;;;;2.00;2.00;;;;;14.70;61.49;99615.22;5019463;28;45457;-64
2022/09/29 01:11:29;;;;;;;;;3.25;2.00;;;;;14.70;61.47;99613.41;5020598;28;45424;-64
2022/09/29 01:14:02;;;;;;;;;1.00;1.00;;;;;14.69;61.63;99622.41;5035202;28;45371;-64
2022/09/29 01:16:33;;;;;;;;;1.75;1.50;;;;;14.70;61.64;99617.91;5027383;28;45359;-64
2022/09/29 01:19:01;;;;;;;;;3.00;3.00;;;;;14.70;61.70;99616.09;5028575;28;45325;-64
2022/09/29 01:21:36;;;;;;;;;2.00;2.00;;;;;14.70;61.49;99613.41;5028607;28;45367;-64
2022/09/29 01:24:13;;;;;;;;;2.50;2.00;;;;;14.72;61.73;99607.94;5029062;28;45247;-64
2022/09/29 01:27:16;;;;;;;;;2.00;2.00;;;;;14.70;61.65;99610.72;5036439;28;45377;-64
2022/09/29 01:30:19;;;;;;;;;3.00;2.00;;;;;14.70;61.46;99609.84;5035410;28;45612;-64
2022/09/29 01:33:10;;;;;;;;;1.00;1.00;;;;;14.69;61.42;99603.63;5024559;28;46923;-64
2022/09/29 01:35:47;;;;;;;;;2.25;2.00;;;;;14.65;61.70;99602.13;5020653;28;45564;-64
2022/09/29 01:38:47;;;;;;;;;2.00;2.00;;;;;14.67;61.54;99604.66;5023411;28;45401;-64
2022/09/29 01:41:34;;;;;;;;;1.50;1.00;;;;;14.56;61.46;99586.59;5024429;28;45341;-64
2022/09/29 01:44:13;;;;;;;;;2.00;2.00;;;;;14.64;61.54;99597.69;5037910;28;45443;-64
2022/09/29 01:46:44;;;;;;;;;3.25;2.00;;;;;14.60;61.66;99599.75;5029238;28;45539;-64
2022/09/29 01:49:10;;;;;;;;;1.75;1.75;;;;;14.58;61.78;99603.44;5035045;28;45506;-64
2022/09/29 01:51:43;;;;;;;;;1.00;1.00;;;;;14.62;61.92;99610.38;5018223;28;45481;-64
2022/09/29 01:54:16;;;;;;;;;2.00;2.00;;;;;14.60;62.10;99604.22;5026979;28;45347;-64
2022/09/29 01:57:07;;;;;;;;;3.00;3.00;;;;;14.58;61.95;99604.31;5026887;28;45660;-65
2022/09/29 01:59:38;;;;;;;;;2.00;2.00;;;;;14.59;61.85;99610.59;5028327;28;45643;-64
2022/09/29 02:02:09;;;;;;;;;3.00;3.00;;;;;14.54;61.73;99607.31;5035378;28;45507;-64
2022/09/29 02:04:41;;;;;;;;;2.00;1.25;;;;;14.45;61.99;99595.38;5021215;28;45743;-64
2022/09/29 02:07:24;;;;;;;;;2.00;2.00;;;;;14.58;62.03;99615.06;5022776;28;45637;-64
2022/09/29 02:09:54;;;;;;;;;2.50;2.50;;;;;14.54;62.13;99610.00;5024264;28;45265;-64
2022/09/29 02:12:25;;;;;;;;;4.00;3.00;;;;;14.55;62.03;99615.28;5021817;28;45500;-64
2022/09/29 02:14:52;;;;;;;;;3.00;2.00;;;;;14.51;62.57;99608.38;5035436;28;45317;-64
2022/09/29 02:17:21;;;;;;;;;4.00;4.00;;;;;14.51;62.25;99605.69;5023043;28;45690;-64
2022/09/29 02:19:50;;;;;;;;;3.75;3.50;;;;;14.53;62.34;99616.31;5020254;28;45424;-64
2022/09/29 02:22:16;;;;;;;;;3.25;2.50;;;;;14.40;62.29;99605.53;5031091;28;45411;-64
2022/09/29 02:24:42;;;;;;;;;3.25;2.00;;;;;14.49;62.32;99620.19;5023711;28;45493;-64
2022/09/29 02:27:07;;;;;;;;;4.00;2.50;;;;;14.36;62.41;99595.97;5023041;28;45431;-64
2022/09/29 02:29:34;;;;;;;;;1.00;1.00;;;;;14.44;62.67;99609.75;5037226;28;45664;-64
2022/09/29 02:32:01;;;;;;;;;3.75;3.75;;;;;14.40;62.40;99601.03;5030706;28;45425;-64
2022/09/29 02:34:30;;;;;;;;;3.00;3.00;;;;;14.43;62.48;99613.38;5021304;28;46450;-64
2022/09/29 02:37:21;;;;;;;;;1.75;1.75;;;;;14.46;62.47;99613.19;5028362;28;45716;-64
2022/09/29 02:39:47;;;;;;;;;2.25;2.25;;;;;14.44;62.71;99613.28;5019532;28;45349;-64
2022/09/29 02:42:39;;;;;;;;;5.67;4.00;;;;;14.34;62.46;99590.69;5019667;28;45605;-63
2022/09/29 02:45:38;;;;;;;;;3.00;2.75;;;;;14.46;62.68;99611.34;5028727;28;46629;-64
2022/09/29 02:48:30;;;;;;;;;3.50;3.50;;;;;14.46;62.63;99615.88;5022616;28;45632;-65
2022/09/29 02:51:32;;;;;;;;;2.50;2.50;;;;;14.45;62.80;99614.16;5023682;28;45459;-65
2022/09/29 02:54:09;;;;;;;;;3.25;3.25;;;;;14.41;62.67;99601.88;5024378;28;45755;-65
2022/09/29 02:56:54;;;;;;;;;3.50;3.50;;;;;14.40;62.91;99608.22;5029763;28;46276;-64
2022/09/29 02:59:24;;;;;;;;;3.00;3.00;;;;;14.37;62.80;99606.59;5019482;28;45497;-64
2022/09/29 03:01:55;;;;;;;;;1.75;1.00;;;;;14.37;62.92;99603.06;5034128;28;45386;-64
2022/09/29 03:04:23;;;;;;;;;5.25;4.75;;;;;14.36;62.97;99599.50;5039356;28;45461;-64
2022/09/29 03:06:48;;;;;;;;;3.00;3.00;;;;;14.32;62.74;99586.41;5028794;28;48477;-64
2022/09/29 03:09:14;;;;;;;;;3.00;3.00;;;;;14.32;63.04;99589.94;5029014;28;45710;-64
2022/09/29 03:11:39;;;;;;;;;2.75;2.75;;;;;14.26;63.08;99577.78;5030482;28;45553;-63
2022/09/29 03:14:05;;;;;;;;;3.50;2.00;;;;;14.37;63.26;99603.06;5026666;28;45470;-64
2022/09/29 03:16:31;;;;;;;;;3.00;3.00;;;;;14.29;63.12;99589.28;5018995;28;46161;-64
2022/09/29 03:18:56;;;;;;;;;4.00;4.00;;;;;14.29;63.17;99586.63;5031285;28;45466;-63
2022/09/29 03:21:22;;;;;;;;;3.00;3.00;;;;;14.25;63.20;99586.81;5032259;28;45350;-64
2022/09/29 03:23:47;;;;;;;;;3.00;3.00;;;;;14.21;63.26;99584.41;5020140;28;45729;-64
2022/09/29 03:26:13;;;;;;;;;3.75;3.75;;;;;14.21;63.22;99589.78;5023721;28;46014;-64
2022/09/29 03:28:38;;;;;;;;;1.75;0.00;;;;;14.26;63.24;99596.56;5024463;28;45391;-64
2022/09/29 03:31:06;;;;;;;;;4.50;3.25;;;;;14.29;63.38;99600.03;5032248;28;45414;-64
2022/09/29 03:33:31;;;;;;;;;4.00;4.00;;;;;14.18;63.38;99579.25;5030736;28;45397;-63
2022/09/29 03:35:57;;;;;;;;;2.50;2.50;;;;;14.28;63.22;99591.09;5018381;28;45564;-64
2022/09/29 03:38:22;;;;;;;;;5.25;3.00;;;;;14.21;63.13;99581.75;5030988;28;50313;-64
2022/09/29 03:40:47;;;;;;;;;2.75;2.75;;;;;14.29;63.13;99595.50;5022251;28;45277;-64
2022/09/29 03:43:13;;;;;;;;;2.00;2.00;;;;;14.19;63.51;99575.63;5019016;28;45308;-64
2022/09/29 03:45:50;;;;;;;;;3.00;3.00;;;;;14.21;63.49;99592.47;5033231;28;47213;-64
2022/09/29 03:48:17;;;;;;;;;3.00;3.00;;;;;14.24;63.32;99590.44;5027710;28;45321;-64
2022/09/29 03:50:44;;;;;;;;;3.50;3.50;;;;;14.19;63.53;99581.84;5018998;28;45790;-63
2022/09/29 03:53:10;;;;;;;;;4.00;3.00;;;;;14.23;63.56;99593.22;5028117;28;45387;-64
2022/09/29 03:55:36;;;;;;;;;3.00;2.00;;;;;14.23;63.55;99587.84;5017387;28;46139;-64
2022/09/29 03:58:01;;;;;;;;;2.50;2.50;;;;;14.23;63.58;99593.22;5026686;28;45301;-64
2022/09/29 04:00:27;;;;;;;;;5.25;4.25;;;;;14.14;63.90;99567.00;5021528;28;45348;-63
2022/09/29 04:02:55;;;;;;;;;3.75;3.50;;;;;14.25;63.83;99594.84;5027768;28;45407;-64
2022/09/29 04:05:21;;;;;;;;;4.00;4.00;;;;;14.22;63.82;99586.16;5023716;28;45795;-64
2022/09/29 04:07:46;;;;;;;;;6.00;3.25;;;;;14.21;63.84;99589.78;5018870;28;45320;-64
2022/09/29 04:10:12;;;;;;;;;3.00;3.00;;;;;14.24;63.75;99594.97;5018587;28;45380;-64
2022/09/29 04:12:37;;;;;;;;;4.25;3.00;;;;;14.17;63.82;99588.28;5028090;28;45414;-64
2022/09/29 04:15:03;;;;;;;;;2.25;2.25;;;;;14.23;63.79;99601.28;5019994;28;45423;-64
2022/09/29 04:17:28;;;;;;;;;3.00;3.00;;;;;14.17;64.01;99588.28;5021758;28;45369;-63
2022/09/29 04:19:54;;;;;;;;;3.50;2.75;;;;;14.14;63.98;99588.47;5020378;28;45368;-63
2022/09/29 04:22:20;;;;;;;;;3.25;2.00;;;;;14.20;64.10;99598.78;5018423;28;45403;-63
2022/09/29 04:24:47;;;;;;;;;4.75;3.75;;;;;14.08;64.00;99582.56;5018013;28;46090;-63
2022/09/29 04:27:13;;;;;;;;;4.00;3.00;;;;;14.21;64.19;99609.44;5024114;28;46898;-64
2022/09/29 04:29:38;;;;;;;;;3.00;3.00;;;;;14.22;64.00;99607.63;5036910;28;45564;-64
2022/09/29 04:32:05;;;;;;;;;2.75;2.75;;;;;14.21;64.11;99619.31;5028874;28;45637;-63
2022/09/29 04:34:31;;;;;;;;;4.00;4.00;;;;;14.17;64.35;99612.44;5020835;28;46470;-63
2022/09/29 04:36:56;;;;;;;;;4.00;4.00;;;;;14.12;64.17;99595.78;5028712;28;45660;-63
2022/09/29 04:39:21;;;;;;;;;6.25;4.50;;;;;14.22;64.32;99613.84;5039913;28;45573;-63
2022/09/29 04:41:47;;;;;;;;;4.00;3.25;;;;;14.18;64.42;99600.72;5030090;28;46064;-63
2022/09/29 04:44:12;;;;;;;;;2.00;2.00;;;;;14.17;64.18;99599.00;5024847;28;46066;-64
2022/09/29 04:46:38;;;;;;;;;4.00;4.00;;;;;14.14;64.06;99600.06;5021397;28;45506;-64
2022/09/29 04:49:03;;;;;;;;;4.00;4.00;;;;;14.02;64.48;99585.63;5033920;28;45703;-64
2022/09/29 04:51:29;;;;;;;;;3.00;3.00;;;;;14.08;64.34;99587.03;5026837;28;45395;-64
2022/09/29 04:53:54;;;;;;;;;5.00;3.75;;;;;14.10;64.58;99603.94;5024089;28;45437;-63
2022/09/29 04:56:19;;;;;;;;;4.75;3.25;;;;;14.16;64.74;99611.56;5022087;28;45572;-63
2022/09/29 04:58:45;;;;;;;;;4.00;4.00;;;;;14.16;64.43;99608.88;5034494;28;45371;-63
2022/09/29 05:01:14;;;;;;;;;3.25;3.00;;;;;14.12;64.69;99611.88;5029396;28;45336;-63
2022/09/29 05:03:40;;;;;;;;;4.50;4.00;;;;;14.12;64.79;99618.09;5033221;28;46062;-63
2022/09/29 05:06:06;;;;;;;;;5.00;3.00;;;;;14.09;64.72;99608.41;5032672;28;45586;-63
2022/09/29 05:08:31;;;;;;;;;3.75;3.00;;;;;14.11;64.89;99616.34;5034287;28;45493;-63
2022/09/29 05:10:57;;;;;;;;;5.00;5.00;;;;;14.13;64.95;99610.91;5030358;28;45553;-64
2022/09/29 05:13:23;;;;;;;;;4.25;3.00;;;;;14.12;65.04;99617.25;5031143;28;46589;-64
2022/09/29 05:15:53;;;;;;;;;5.75;4.50;;;;;14.11;64.82;99612.81;5030072;28;45407;-64
2022/09/29 05:18:18;;;;;;;;;3.00;3.00;;;;;14.08;65.01;99612.06;5029896;28;45334;-63
2022/09/29 05:20:44;;;;;;;;;7.50;3.50;;;;;14.13;64.88;99614.44;5029286;28;45535;-63
2022/09/29 05:23:09;;;;;;;;;3.00;2.00;;;;;14.02;64.91;99592.81;5026157;28;47706;-64
2022/09/29 05:25:36;;;;;;;;;5.75;4.25;;;;;14.11;64.90;99611.00;5024752;28;48161;-64
2022/09/29 05:28:01;;;;;;;;;8.00;5.00;;;;;14.07;65.08;99609.50;5034027;28;45540;-63
2022/09/29 05:30:27;;;;;;;;;4.25;4.00;;;;;14.02;65.16;99603.56;5020828;28;45343;-63
2022/09/29 05:32:52;;;;;;;;;4.00;3.75;;;;;14.08;65.25;99617.44;5020356;28;51396;-64
2022/09/29 05:35:17;;;;;;;;;4.50;4.00;;;;;14.07;65.10;99610.34;5029944;28;50127;-64
2022/09/29 05:37:45;;;;;;;;;3.00;3.00;;;;;13.93;65.09;99588.91;5025634;28;46004;-64
2022/09/29 05:40:10;;;;;;;;;5.25;4.00;;;;;14.03;65.11;99606.16;5027726;28;45312;-64
2022/09/29 05:42:36;;;;;;;;;2.00;2.00;;;;;13.96;65.19;99599.44;5023895;28;45405;-64
2022/09/29 05:45:01;;;;;;;;;3.00;3.00;;;;;14.07;65.16;99621.06;5020578;28;45462;-63
2022/09/29 05:47:26;;;;;;;;;4.00;2.75;;;;;14.10;65.31;99628.06;5024700;28;45422;-63
2022/09/29 05:49:51;;;;;;;;;7.25;5.00;;;;;14.05;65.37;99617.63;5029687;28;45492;-63
2022/09/29 05:52:17;;;;;;;;;3.00;2.50;;;;;14.07;65.09;99628.28;5032092;28;46211;-63
2022/09/29 05:54:42;;;;;;;;;4.50;4.50;;;;;14.09;65.42;99627.19;5019303;28;45517;-63
2022/09/29 05:57:08;;;;;;;;;5.75;4.75;;;;;14.10;65.40;99630.75;5023153;28;45493;-63
2022/09/29 05:59:33;;;;;;;;;6.00;6.00;;;;;14.02;65.28;99612.47;5022900;28;46578;-63
2022/09/29 06:01:58;;;;;;;;;4.50;3.50;;;;;14.09;65.48;99624.50;5025673;28;50464;-63
2022/09/29 06:04:23;;;;;;;;;4.25;4.00;;;;;14.00;65.40;99618.88;5028483;28;57473;-63
2022/09/29 06:06:49;;;;;;;;;7.00;5.00;;;;;14.05;65.48;99623.00;5035770;28;45312;-63
2022/09/29 06:09:14;;;;;;;;;4.75;4.75;;;;;14.11;65.55;99629.78;5034343;28;45615;-63
2022/09/29 06:11:40;;;;;;;;;5.75;5.50;;;;;14.07;65.50;99620.22;5038493;28;46901;-63
2022/09/29 06:14:05;;;;;;;;;7.00;4.00;;;;;14.07;65.78;99626.44;5030445;28;45308;-63
2022/09/29 06:16:32;;;;;;;;;4.25;4.25;;;;;14.06;65.48;99627.38;5018768;28;45536;-63
2022/09/29 06:19:00;;;;;;;;;5.25;5.00;;;;;14.07;65.34;99631.81;5027080;28;45400;-63
2022/09/29 06:21:27;;;;;;;;;4.00;4.00;;;;;13.99;65.83;99618.03;5018792;28;46976;-64
2022/09/29 06:23:54;;;;;;;;;6.00;6.00;;;;;14.09;65.51;99634.38;5022679;28;45626;-63
2022/09/29 06:26:21;;;;;;;;;4.75;4.75;;;;;14.11;65.61;99628.94;5033317;28;45496;-63
2022/09/29 06:28:47;;;;;;;;;6.25;4.25;;;;;14.12;65.33;99630.66;5037542;28;45570;-63
2022/09/29 06:31:15;;;;;;;;;7.00;6.00;;;;;14.08;65.68;99628.16;5023708;28;45497;-63
2022/09/29 06:33:41;;;;;;;;;4.25;4.25;;;;;14.01;65.58;99617.94;5019865;28;45633;-63
2022/09/29 06:39:07;;;;;;;;;6.50;5.00;;;;;14.04;65.51;99631.16;5033452;28;45319;-63
2022/09/29 06:41:34;;;;;;;;;5.25;5.25;;;;;14.09;65.92;99634.38;5019739;28;47423;-63
2022/09/29 06:44:00;;;;;;;;;4.00;4.00;;;;;14.09;65.52;99643.28;5029399;28;45649;-64
2022/09/29 06:46:28;;;;;;;;;6.75;6.00;;;;;14.05;65.79;99627.50;5022003;28;45609;-63
2022/09/29 06:48:54;;;;;;;;;5.00;5.00;;;;;13.99;65.39;99612.66;5010787;28;45939;-66
2022/09/29 06:51:23;;;;;;;;;5.00;5.00;;;;;14.02;65.24;99625.88;5033564;28;46344;-66
2022/09/29 06:53:49;;;;;;;;;5.00;5.00;;;;;14.05;65.36;99625.69;5028700;28;45623;-66
2022/09/29 06:56:15;;;;;;;;;5.00;5.00;;;;;14.02;65.39;99620.50;5033212;28;45683;-66
2022/09/29 06:58:40;;;;;;;;;8.25;6.50;;;;;14.14;65.31;99634.94;5025514;28;45619;-66
2022/09/29 07:01:06;;;;;;;;;8.00;6.00;;;;;14.19;65.28;99650.75;5021877;28;47222;-66
2022/09/29 07:03:32;;;;;;;;;4.25;4.00;;;;;14.14;65.19;99640.31;5031495;28;45426;-65
2022/09/29 07:06:02;;;;;;;;;5.75;5.00;;;;;14.20;65.26;99649.78;5027785;28;45570;-65
2022/09/29 07:08:28;;;;;;;;;8.00;6.00;;;;;14.06;65.13;99629.22;5037395;28;45458;-66
2022/09/29 07:10:54;;;;;;;;;6.25;5.50;;;;;14.14;65.29;99637.63;5027123;28;46998;-64
2022/09/29 07:13:20;;;;;;;;;7.50;7.50;;;;;14.18;65.14;99643.66;5033497;28;47024;-64
2022/09/29 07:15:46;;;;;;;;;9.25;7.00;;;;;14.25;65.17;99650.38;5025674;28;45506;-64
2022/09/29 07:18:12;;;;;;;;;8.25;7.00;;;;;14.17;65.46;99639.28;5020654;28;45337;-65
2022/09/29 07:20:39;;;;;;;;;6.00;6.00;;;;;14.13;65.24;99638.59;5022582;28;46439;-64
2022/09/29 07:23:05;;;;;;;;;7.00;7.00;;;;;14.20;65.12;99645.31;5020948;28;45878;-64
2022/09/29 07:25:31;;;;;;;;;9.00;6.00;;;;;14.28;65.17;99660.88;5034795;28;45342;-66
2022/09/29 07:27:56;;;;;;;;;6.25;5.50;;;;;14.28;65.26;99660.88;5031452;28;45373;-63
2022/09/29 07:30:40;;;;;;;;;7.50;7.25;;;;;14.31;65.45;99667.88;5110818;27;45377;-65
2022/09/29 07:33:05;;;;;;;;;8.50;6.75;;;;;14.29;65.12;99662.63;5095557;27;45397;-63
2022/09/29 07:35:30;;;;;;;;;4.00;4.00;;;;;14.30;65.36;99660.78;5093183;27;45425;-63
2022/09/29 07:37:56;;;;;;;;;1.75;0.75;;;;;14.36;65.22;99676.50;5076610;27;45756;-64
2022/09/29 07:40:22;;;;;;;;;7.75;6.00;;;;;14.36;64.83;99677.34;5090157;27;46939;-62
2022/09/29 07:42:48;;;;;;;;;8.00;6.50;;;;;14.29;64.67;99661.78;5086211;27;45607;-63
2022/09/29 07:45:17;;;;;;;;;6.25;6.25;;;;;14.38;64.49;99683.50;5084248;27;45350;-62
2022/09/29 07:47:42;;;;;;;;;6.50;6.00;;;;;14.38;64.70;99678.16;5094443;27;45549;-65
2022/09/29 07:50:08;;;;;;;;;8.00;6.50;;;;;14.41;64.60;99682.44;5084031;27;46327;-62
2022/09/29 07:52:34;;;;;;;;;9.50;7.75;;;;;14.45;64.48;99684.81;5082332;27;45638;-62
2022/09/29 07:54:59;;;;;;;;;7.00;6.25;;;;;14.45;64.63;99690.19;5088582;27;45418;-62
2022/09/29 07:57:25;;;;;;;;;7.75;7.00;;;;;14.44;64.89;99691.16;5083785;27;45390;-62
2022/09/29 07:59:53;;;;;;;;;10.75;9.00;;;;;14.49;64.38;99690.00;5084449;27;45398;-62
2022/09/29 08:02:18;;;;;;;;;11.50;9.25;;;;;14.50;64.60;99700.66;5085849;27;45646;-62
2022/09/29 08:04:44;;;;;;;;;8.00;8.00;;;;;14.50;64.50;99697.06;5073284;27;46187;-62
2022/09/29 08:07:09;;;;;;;;;7.75;7.75;;;;;14.44;64.70;99693.84;5077935;27;45794;-62
2022/09/29 08:09:35;;;;;;;;;8.00;8.00;;;;;14.43;64.90;99692.13;5085028;27;46371;-62
2022/09/29 08:12:00;;;;;;;;;7.00;7.00;;;;;14.52;64.78;99709.44;5082027;27;46989;-62
2022/09/29 08:14:25;;;;;;;;;9.00;9.00;;;;;14.45;64.67;99697.41;5077412;27;45439;-62
2022/09/29 08:16:51;;;;;;;;;11.00;8.25;;;;;14.49;64.62;99706.97;5086666;27;45627;-62
2022/09/29 08:19:16;;;;;;;;;8.50;8.00;;;;;14.55;64.40;99714.63;5083172;27;46021;-62
2022/09/29 08:21:41;;;;;;;;;11.00;10.25;;;;;14.57;65.04;99710.00;5081320;27;46030;-62
2022/09/29 08:24:07;;;;;;;;;7.50;7.00;;;;;14.61;64.35;99713.38;5075107;27;45290;-62
2022/09/29 08:26:35;;;;;;;;;7.75;6.75;;;;;14.64;64.31;99721.25;5082045;27;45508;-62
2022/09/29 08:29:02;;;;;;;;;7.75;7.75;;;;;14.62;64.13;99718.66;5072737;27;45480;-62
2022/09/29 08:31:27;;;;;;;;;11.75;11.75;;;;;14.68;64.03;99719.22;5092615;27;45371;-62
2022/09/29 08:33:55;;;;;;;;;9.75;8.50;;;;;14.53;64.30;99697.72;5090122;27;46410;-62
2022/09/29 08:36:20;;;;;;;;;13.50;12.25;;;;;14.71;63.99;99721.72;5070780;27;46108;-62
2022/09/29 08:38:48;;;;;;;;;11.50;11.25;;;;;14.72;64.00;99729.66;5075207;27;45586;-62
2022/09/29 08:41:47;;;;;;;;;13.25;11.50;;;;;14.74;63.99;99721.50;5081789;27;45669;-62
2022/09/29 08:44:15;;;;;;;;;13.75;12.75;;;;;14.76;64.26;99731.16;5065197;28;45418;-62
2022/09/29 08:46:48;;;;;;;;;15.00;15.00;;;;;14.74;64.22;99721.50;5070635;28;45711;-62
2022/09/29 08:49:26;;;;;;;;;10.75;9.00;;;;;14.80;64.67;99735.41;5077274;27;45412;-62
2022/09/29 08:51:55;;;;;;;;;12.00;11.75;;;;;14.76;64.57;99728.47;5078033;28;45598;-62
2022/09/29 08:54:29;;;;;;;;;11.25;10.50;;;;;14.76;64.18;99730.31;5072611;28;45376;-62
2022/09/29 08:56:55;;;;;;;;;11.25;9.75;;;;;14.80;64.13;99735.41;5067456;27;45456;-62
2022/09/29 08:59:24;;;;;;;;;11.25;10.25;;;;;14.82;64.28;99746.03;5067851;28;45353;-62
2022/09/29 09:01:49;;;;;;;;;13.50;12.00;;;;;14.82;63.37;99746.03;5064366;27;45629;-62
2022/09/29 09:04:23;;;;;;;;;9.33;9.33;;;;;14.80;63.91;99756.88;5067613;27;45441;-62
2022/09/29 09:06:51;;;;;;;;;10.50;10.00;;;;;14.81;63.73;99755.06;5065730;28;45470;-62
2022/09/29 09:09:19;;;;;;;;;10.00;9.00;;;;;14.85;63.48;99756.59;5068122;28;46479;-62
2022/09/29 09:12:04;;;;;;;;;5.75;5.75;;;;;14.85;63.30;99751.22;5071965;28;45313;-62
2022/09/29 09:14:38;;;;;;;;;6.00;6.00;;;;;14.88;63.20;99755.50;5076724;27;45338;-62
2022/09/29 09:17:34;;;;;;;;;7.00;7.00;;;;;14.89;63.04;99751.88;5071714;27;45505;-62
2022/09/29 09:20:40;;;;;;;;;6.00;6.00;;;;;14.91;63.23;99752.63;5066152;28;46218;-62
2022/09/29 09:23:23;;;;;;;;;5.00;5.00;;;;;14.93;62.99;99759.59;5051707;28;45505;-62
2022/09/29 09:25:53;;;;;;;;;0.00;0.00;;;;;14.87;62.79;99741.22;5064024;28;45556;-62
2022/09/29 09:28:26;;;;;;;;;5.75;4.00;;;;;14.92;63.06;99741.78;5062228;28;45464;-62
2022/09/29 09:31:03;;;;;;;;;4.75;4.50;;;;;14.92;62.90;99743.63;5060200;28;47188;-63
2022/09/29 09:33:49;;;;;;;;;3.75;3.00;;;;;14.97;62.65;99754.91;5063952;28;45414;-62
2022/09/29 09:36:22;;;;;;;;;6.50;6.50;;;;;14.96;62.60;99754.03;5066223;28;45687;-62
2022/09/29 09:39:00;;;;;;;;;5.00;5.00;;;;;14.94;62.81;99749.75;5071908;28;45669;-61
2022/09/29 09:41:28;;;;;;;;;5.00;5.00;;;;;14.96;62.23;99762.09;5066480;28;46155;-62
2022/09/29 09:44:04;;;;;;;;;6.00;5.00;;;;;14.90;62.63;99750.91;5073448;28;45403;-61
2022/09/29 09:46:37;;;;;;;;;6.00;5.00;;;;;14.95;62.53;99756.81;5072883;28;45390;-61
2022/09/29 09:49:18;;;;;;;;;5.00;5.00;;;;;14.99;62.59;99767.28;5077421;27;45503;-61
2022/09/29 09:51:54;;;;;;;;;5.75;5.75;;;;;15.00;62.71;99774.38;5065773;28;45494;-61
2022/09/29 09:54:32;;;;;;;;;5.00;5.00;;;;;14.89;62.77;99758.09;5073569;28;45391;-61
2022/09/29 09:57:42;;;;;;;;;6.75;6.00;;;;;14.75;62.67;99736.63;5071845;28;45418;-60
2022/09/29 10:00:15;;;;;;;;;8.00;5.50;;;;;14.95;62.71;99772.94;4979029;28;45473;-61
2022/09/29 10:02:48;;;;;;;;;7.00;7.00;;;;;14.94;62.97;99777.47;5070178;28;45522;-61
2022/09/29 10:05:16;;;;;;;;;6.00;5.00;;;;;14.90;62.96;99761.63;5078400;28;46559;-61
2022/09/29 10:07:43;;;;;;;;;7.50;7.50;;;;;14.87;62.70;99756.47;5078262;28;45312;-61
2022/09/29 10:10:24;;;;;;;;;4.75;4.75;;;;;14.98;63.26;99772.75;5065839;28;45548;-60
2022/09/29 10:13:02;;;;;;;;;4.50;4.50;;;;;15.00;62.75;99776.19;5075849;27;46453;-61
2022/09/29 10:15:33;;;;;;;;;6.50;6.50;;;;;15.01;62.64;99778.78;5058773;28;45315;-61
2022/09/29 10:18:16;;;;;;;;;6.75;6.75;;;;;15.04;62.51;99777.72;5070521;27;45531;-61
2022/09/29 10:20:42;;;;;;;;;11.00;10.00;;;;;15.01;62.35;99781.47;5057336;28;45527;-61
2022/09/29 10:23:17;;;;;;;;;10.50;10.50;;;;;15.04;62.93;99793.00;5059078;28;45530;-61
2022/09/29 10:25:52;;;;;;;;;11.00;11.00;;;;;14.98;63.14;99788.88;5068037;28;45490;-61
2022/09/29 10:28:17;;;;;;;;;23.00;22.00;;;;;14.88;63.35;99790.44;5060883;28;45493;-61
2022/09/29 10:30:43;;;;;;;;;17.50;14.50;;;;;14.72;63.33;99786.06;5059235;28;45474;-60
2022/09/29 10:33:15;;;;;;;;;14.50;12.75;;;;;14.78;63.66;99801.81;5073281;28;46132;-60
2022/09/29 10:35:42;;;;;;;;;13.00;10.00;;;;;14.63;63.98;99792.91;5069354;27;45839;-60
2022/09/29 10:38:17;;;;;;;;;13.25;13.25;;;;;14.73;64.65;99806.59;5070641;27;45528;-60
2022/09/29 10:41:00;;;;;;;;;14.50;14.00;;;;;14.71;65.53;99804.97;5069668;27;45425;-60
2022/09/29 10:43:33;;;;;;;;;15.25;12.75;;;;;14.63;65.64;99808.13;5062038;27;45592;-60
2022/09/29 10:45:59;;;;;;;;;14.00;13.00;;;;;14.46;65.51;99793.06;5071696;27;45772;-60
2022/09/29 10:48:26;;;;;;;;;15.00;14.50;;;;;14.52;66.47;99802.59;5059441;28;45697;-60
2022/09/29 10:50:54;;;;;;;;;13.25;13.25;;;;;14.46;66.36;99809.19;5074800;27;45832;-60
2022/09/29 10:53:40;;;;;;;;;10.75;10.75;;;;;14.42;66.75;99803.16;5067785;27;46772;-60
2022/09/29 10:56:16;;;;;;;;;11.75;11.75;;;;;14.43;66.88;99812.94;5077620;27;45603;-60
2022/09/29 10:58:50;;;;;;;;;16.50;14.25;;;;;14.43;67.05;99820.13;5060954;28;45347;-60
2022/09/29 11:01:17;;;;;;;;;11.00;10.00;;;;;14.41;67.67;99817.53;5073181;27;45499;-60
2022/09/29 11:04:04;;;;;;;;;11.75;10.75;;;;;14.39;67.40;99815.91;5071680;27;45701;-60
2022/09/29 11:06:33;;;;;;;;;12.50;11.00;;;;;14.45;67.83;99816.41;5071269;28;45851;-60
2022/09/29 11:09:24;;;;;;;;;11.50;11.50;;;;;14.42;67.62;99823.78;5076350;27;45449;-60
2022/09/29 11:11:56;;;;;;;;;13.25;11.50;;;;;14.41;67.48;99817.53;5063708;28;45406;-60
2022/09/29 11:14:29;;;;;;;;;8.00;8.00;;;;;14.41;66.28;99816.69;5075142;27;46426;-60
2022/09/29 11:17:00;;;;;;;;;9.50;8.50;;;;;14.32;66.98;99818.13;5060182;28;45987;-60
2022/09/29 11:19:28;;;;;;;;;9.25;8.00;;;;;14.37;67.41;99829.44;5072487;27;45378;-60
2022/09/29 11:22:32;;;;;;;;;7.50;7.50;;;;;14.41;67.54;99838.16;5059121;28;45557;-60
2022/09/29 11:25:17;;;;;;;;;9.00;8.50;;;;;14.42;67.82;99845.25;5055468;28;45457;-60
2022/09/29 11:28:15;;;;;;;;;13.75;10.75;;;;;14.40;67.54;99845.34;5058903;28;45688;-60
2022/09/29 11:30:58;;;;;;;;;11.00;9.00;;;;;14.42;67.80;99856.84;5066928;28;45482;-60
2022/09/29 11:33:51;;;;;;;;;14.00;12.75;;;;;14.42;67.42;99859.53;5057136;28;45660;-60
2022/09/29 11:36:25;;;;;;;;;16.50;14.50;;;;;14.35;67.37;99866.25;5058342;28;45913;-60
2022/09/29 11:38:54;;;;;;;;;17.25;15.00;;;;;14.31;67.93;99864.72;5063397;28;45640;-60
2022/09/29 11:41:42;;;;;;;;;13.00;12.75;;;;;14.29;67.74;99866.63;5066566;28;45378;-60
2022/09/29 11:44:25;;;;;;;;;11.25;11.25;;;;;14.23;68.07;99873.25;5061734;28;45499;-60
2022/09/29 11:47:19;;;;;;;;;11.50;9.75;;;;;14.19;67.75;99869.00;5055488;28;45710;-62
2022/09/29 11:50:17;;;;;;;;;18.00;14.00;;;;;14.17;68.13;99868.25;5060691;28;45803;-62
2022/09/29 11:53:14;;;;;;;;;17.00;14.00;;;;;14.18;68.40;99872.69;5059075;28;45634;-64